メインページ
METAR-TAF:

METAR-TAF

空港 :

ノーフォーク島空港

ノーフォーク島, オーストラリア

緯度: 29-02S, 経度: 167-56E, 海抜: 113m

現時点の気象観測

当レポートは22分前の13:00(UTC)に作成
南東の風 8kt
気温 18°C
湿度 77%
気圧 1017 hPa
視程10km以上
高度1700ftの曇り

METAR: YSNF 101300Z AUTO 14008KT 9999 // OVC017 18/14 Q1017

時間: 00:22 (13:22 UTC)

予報

当レポートは2時間17分前の11:05(UTC)に作成
予報は10日の 12時(UTC)から 11日の 12時(UTC)まで有効
南東の風 12kt
視程10km以上
高度1500ftの雲は散在している
11日の 0000時(UTC)から
南/南東の風 9kt
視程10km以上
高度2000ftの雲は散在している

TAF: YSNF 101105Z 1012/1112 14012KT 9999 SCT015 FM110000 16009KT 9999 SCT020

4,000以上の空港の気象観測と天気予報(METAR報とTAF報)

利用可能な観測所は地図上に黄色い丸と赤い丸で示す。

丸の上にカーソルを重ねると観測所名を参照できる。

次にクリックすると気象観測と天気予報を参照できる。

マップの切り替え:黒色「×」印の緑ボタンをクリックして拡大、「-」印の緑ボタンをクリックして縮小、緑色の三角印をクリックして隣りの地図に切り替え


METAR-TAF: